PWSweather.com
Personal Weather Stations
Station Observations
DW1039
Liberty & Fairfield Townships, Hamilton, OH 45011

Liberty & Fairfield TownshipsHamilton, OH 45011

Lat: 39.3933, Lon: -84.477

Elevation: 780

Station Type: Davis Vantage Pro2 (Daytime Fan Aspirated)

http://www.lfweathercenter.com/

High Low Average
Temperature 65.2°F18.4°F 41.0°F5.0°F 53.4°F11.9°F
Dew Point 46.0°F7.8°F 35.9°F2.2°F 40.0°F4.4°F
Winds 14.0 mph ENE22.5 mph ENE Calm Calm 3.5 mph 5.6 mph
Wind Gusts 19.0 mph30.6 mph -- 9.0 mph14.5 mph
Humidity 84% 40% 62%
Pressure 30.10 in1019.30 in 29.97 in1014.90 in -
Precipitation 0.00 in0.00 in - -
Hour Temp Dew Point Humidity Winds Wind Gusts Pressure Precip Precip Rate Daily Precip Total
12:00 AM 46.3°F7.9°C 37.4°F3.0°C 71% 13.0 mph NE20.9 kmh NE 13.0 mph20.9 kmh 30.10 in1019.3 mb 0.00 in0.0 mm 0.00 in0.0 mm 0.00 in0.0 mm
12:10 AM 46.3°F7.9°C 37.4°F3.0°C 71% 3.0 mph NE4.8 kmh NE 11.0 mph17.7 kmh 30.10 in1019.3 mb 0.00 in0.0 mm 0.00 in0.0 mm 0.00 in0.0 mm
12:20 AM 46.1°F7.8°C 37.6°F3.1°C 72% 6.0 mph ENE9.7 kmh ENE 10.0 mph16.1 kmh 30.10 in1019.3 mb 0.00 in0.0 mm 0.00 in0.0 mm 0.00 in0.0 mm
12:30 AM 45.8°F7.7°C 37.3°F2.9°C 72% 1.0 mph NE1.6 kmh NE 7.0 mph11.3 kmh 30.10 in1019.3 mb 0.00 in0.0 mm 0.00 in0.0 mm 0.00 in0.0 mm
12:40 AM 45.4°F7.4°C 37.3°F2.9°C 73% 3.0 mph NE4.8 kmh NE 10.0 mph16.1 kmh 30.10 in1019.3 mb 0.00 in0.0 mm 0.00 in0.0 mm 0.00 in0.0 mm
12:50 AM 45.2°F7.3°C 37.1°F2.8°C 73% 7.0 mph NNE11.3 kmh NNE 10.0 mph16.1 kmh 30.10 in1019.3 mb 0.00 in0.0 mm 0.00 in0.0 mm 0.00 in0.0 mm
01:00 AM 45.0°F7.2°C 36.9°F2.7°C 73% 5.0 mph NE8.0 kmh NE 9.0 mph14.5 kmh 30.10 in1019.3 mb 0.00 in0.0 mm 0.00 in0.0 mm 0.00 in0.0 mm
01:10 AM 44.9°F7.2°C 37.1°F2.8°C 74% 4.0 mph NE6.4 kmh NE 12.0 mph19.3 kmh 30.10 in1019.3 mb 0.00 in0.0 mm 0.00 in0.0 mm 0.00 in0.0 mm
01:20 AM 44.5°F6.9°C 36.7°F2.6°C 74% Calm Calm 5.0 mph8.0 kmh 30.10 in1019.3 mb 0.00 in0.0 mm 0.00 in0.0 mm 0.00 in0.0 mm
01:30 AM 44.3°F6.8°C 36.9°F2.7°C 75% 2.0 mph NE3.2 kmh NE 9.0 mph14.5 kmh 30.09 in1019.0 mb 0.00 in0.0 mm 0.00 in0.0 mm 0.00 in0.0 mm
01:40 AM 44.1°F6.7°C 36.7°F2.6°C 75% 3.0 mph NE4.8 kmh NE 6.0 mph9.7 kmh 30.09 in1019.0 mb 0.00 in0.0 mm 0.00 in0.0 mm 0.00 in0.0 mm
01:50 AM 43.9°F6.6°C 36.5°F2.5°C 75% 2.0 mph NE3.2 kmh NE 4.0 mph6.4 kmh 30.09 in1019.0 mb 0.00 in0.0 mm 0.00 in0.0 mm 0.00 in0.0 mm
02:00 AM 43.5°F6.4°C 36.5°F2.5°C 76% Calm Calm 5.0 mph8.0 kmh 30.09 in1019.0 mb 0.00 in0.0 mm 0.00 in0.0 mm 0.00 in0.0 mm
02:10 AM 43.1°F6.2°C 36.4°F2.4°C 77% Calm Calm 4.0 mph6.4 kmh 30.09 in1019.0 mb 0.00 in0.0 mm 0.00 in0.0 mm 0.00 in0.0 mm
02:20 AM 42.8°F6.0°C 36.1°F2.3°C 77% Calm Calm 4.0 mph6.4 kmh 30.08 in1018.6 mb 0.00 in0.0 mm 0.00 in0.0 mm 0.00 in0.0 mm
02:30 AM 42.6°F5.9°C 36.2°F2.3°C 78% Calm Calm 5.0 mph8.0 kmh 30.08 in1018.6 mb 0.00 in0.0 mm 0.00 in0.0 mm 0.00 in0.0 mm
02:40 AM 42.3°F5.7°C 35.9°F2.2°C 78% 1.0 mph NE1.6 kmh NE 6.0 mph9.7 kmh 30.08 in1018.6 mb 0.00 in0.0 mm 0.00 in0.0 mm 0.00 in0.0 mm
02:50 AM 42.1°F5.6°C 36.1°F2.3°C 79% 2.0 mph NE3.2 kmh NE 6.0 mph9.7 kmh 30.08 in1018.6 mb 0.00 in0.0 mm 0.00 in0.0 mm 0.00 in0.0 mm
03:00 AM 42.2°F5.7°C 36.2°F2.3°C 79% 3.0 mph NE4.8 kmh NE 6.0 mph9.7 kmh 30.08 in1018.6 mb 0.00 in0.0 mm 0.00 in0.0 mm 0.00 in0.0 mm
03:10 AM 42.2°F5.7°C 36.2°F2.3°C 79% Calm Calm 7.0 mph11.3 kmh 30.08 in1018.6 mb 0.00 in0.0 mm 0.00 in0.0 mm 0.00 in0.0 mm
03:20 AM 42.1°F5.6°C 36.4°F2.4°C 80% 4.0 mph NE6.4 kmh NE 9.0 mph14.5 kmh 30.08 in1018.6 mb 0.00 in0.0 mm 0.00 in0.0 mm 0.00 in0.0 mm
03:30 AM 42.1°F5.6°C 36.4°F2.4°C 80% 5.0 mph NNE8.0 kmh NNE 8.0 mph12.9 kmh 30.08 in1018.6 mb 0.00 in0.0 mm 0.00 in0.0 mm 0.00 in0.0 mm
03:40 AM 42.0°F5.6°C 36.3°F2.4°C 80% 1.0 mph NE1.6 kmh NE 7.0 mph11.3 kmh 30.08 in1018.6 mb 0.00 in0.0 mm 0.00 in0.0 mm 0.00 in0.0 mm
03:50 AM 42.0°F5.6°C 36.3°F2.4°C 80% 3.0 mph NE4.8 kmh NE 9.0 mph14.5 kmh 30.08 in1018.6 mb 0.00 in0.0 mm 0.00 in0.0 mm 0.00 in0.0 mm
04:00 AM 41.9°F5.5°C 36.2°F2.3°C 80% 3.0 mph NE4.8 kmh NE 7.0 mph11.3 kmh 30.07 in1018.3 mb 0.00 in0.0 mm 0.00 in0.0 mm 0.00 in0.0 mm
04:10 AM 41.9°F5.5°C 36.5°F2.5°C 81% 5.0 mph NE8.0 kmh NE 7.0 mph11.3 kmh 30.08 in1018.6 mb 0.00 in0.0 mm 0.00 in0.0 mm 0.00 in0.0 mm
04:20 AM 41.9°F5.5°C 36.5°F2.5°C 81% 5.0 mph NE8.0 kmh NE 12.0 mph19.3 kmh 30.07 in1018.3 mb 0.00 in0.0 mm 0.00 in0.0 mm 0.00 in0.0 mm
04:30 AM 41.9°F5.5°C 36.5°F2.5°C 81% 5.0 mph NE8.0 kmh NE 10.0 mph16.1 kmh 30.07 in1018.3 mb 0.00 in0.0 mm 0.00 in0.0 mm 0.00 in0.0 mm
04:40 AM 41.8°F5.4°C 36.4°F2.4°C 81% 4.0 mph NE6.4 kmh NE 6.0 mph9.7 kmh 30.07 in1018.3 mb 0.00 in0.0 mm 0.00 in0.0 mm 0.00 in0.0 mm
04:50 AM 41.6°F5.3°C 36.2°F2.3°C 81% 7.0 mph NNE11.3 kmh NNE 11.0 mph17.7 kmh 30.07 in1018.3 mb 0.00 in0.0 mm 0.00 in0.0 mm 0.00 in0.0 mm
05:00 AM 41.6°F5.3°C 36.2°F2.3°C 81% 4.0 mph NE6.4 kmh NE 11.0 mph17.7 kmh 30.07 in1018.3 mb 0.00 in0.0 mm 0.00 in0.0 mm 0.00 in0.0 mm
05:10 AM 41.5°F5.3°C 36.4°F2.4°C 82% 5.0 mph NE8.0 kmh NE 11.0 mph17.7 kmh 30.07 in1018.3 mb 0.00 in0.0 mm 0.00 in0.0 mm 0.00 in0.0 mm
05:20 AM 41.4°F5.2°C 36.3°F2.4°C 82% 3.0 mph NE4.8 kmh NE 10.0 mph16.1 kmh 30.07 in1018.3 mb 0.00 in0.0 mm 0.00 in0.0 mm 0.00 in0.0 mm
05:30 AM 41.3°F5.2°C 36.2°F2.3°C 82% Calm Calm 9.0 mph14.5 kmh 30.07 in1018.3 mb 0.00 in0.0 mm 0.00 in0.0 mm 0.00 in0.0 mm
05:40 AM 41.2°F5.1°C 36.1°F2.3°C 82% 6.0 mph NE9.7 kmh NE 10.0 mph16.1 kmh 30.07 in1018.3 mb 0.00 in0.0 mm 0.00 in0.0 mm 0.00 in0.0 mm
05:50 AM 41.1°F5.1°C 36.3°F2.4°C 83% 3.0 mph NE4.8 kmh NE 9.0 mph14.5 kmh 30.07 in1018.3 mb 0.00 in0.0 mm 0.00 in0.0 mm 0.00 in0.0 mm
06:00 AM 41.0°F5.0°C 36.2°F2.3°C 83% 3.0 mph NE4.8 kmh NE 7.0 mph11.3 kmh 30.06 in1017.9 mb 0.00 in0.0 mm 0.00 in0.0 mm 0.00 in0.0 mm
06:10 AM 41.0°F5.0°C 36.2°F2.3°C 83% 9.0 mph N14.5 kmh N 9.0 mph14.5 kmh 30.06 in1017.9 mb 0.00 in0.0 mm 0.00 in0.0 mm 0.00 in0.0 mm
06:20 AM 41.0°F5.0°C 36.2°F2.3°C 83% Calm Calm 7.0 mph11.3 kmh 30.06 in1017.9 mb 0.00 in0.0 mm 0.00 in0.0 mm 0.00 in0.0 mm
06:30 AM 41.1°F5.1°C 36.3°F2.4°C 83% 5.0 mph NE8.0 kmh NE 10.0 mph16.1 kmh 30.06 in1017.9 mb 0.00 in0.0 mm 0.00 in0.0 mm 0.00 in0.0 mm
06:40 AM 41.0°F5.0°C 36.2°F2.3°C 83% 3.0 mph NE4.8 kmh NE 8.0 mph12.9 kmh 30.06 in1017.9 mb 0.00 in0.0 mm 0.00 in0.0 mm 0.00 in0.0 mm
06:50 AM 41.0°F5.0°C 36.2°F2.3°C 83% 3.0 mph NE4.8 kmh NE 10.0 mph16.1 kmh 30.06 in1017.9 mb 0.00 in0.0 mm 0.00 in0.0 mm 0.00 in0.0 mm
07:00 AM 41.0°F5.0°C 36.5°F2.5°C 84% Calm Calm 8.0 mph12.9 kmh 30.06 in1017.9 mb 0.00 in0.0 mm 0.00 in0.0 mm 0.00 in0.0 mm
07:10 AM 41.0°F5.0°C 36.5°F2.5°C 84% 5.0 mph NE8.0 kmh NE 10.0 mph16.1 kmh 30.06 in1017.9 mb 0.00 in0.0 mm 0.00 in0.0 mm 0.00 in0.0 mm
07:20 AM 41.1°F5.1°C 36.6°F2.6°C 84% 2.0 mph NNE3.2 kmh NNE 11.0 mph17.7 kmh 30.07 in1018.3 mb 0.00 in0.0 mm 0.00 in0.0 mm 0.00 in0.0 mm
07:30 AM 41.6°F5.3°C 37.1°F2.8°C 84% 4.0 mph NNE6.4 kmh NNE 11.0 mph17.7 kmh 30.07 in1018.3 mb 0.00 in0.0 mm 0.00 in0.0 mm 0.00 in0.0 mm
07:40 AM 42.2°F5.7°C 37.4°F3.0°C 83% 4.0 mph NE6.4 kmh NE 10.0 mph16.1 kmh 30.06 in1017.9 mb 0.00 in0.0 mm 0.00 in0.0 mm 0.00 in0.0 mm
07:50 AM 42.9°F6.1°C 37.8°F3.2°C 82% 6.0 mph NE9.7 kmh NE 11.0 mph17.7 kmh 30.06 in1017.9 mb 0.00 in0.0 mm 0.00 in0.0 mm 0.00 in0.0 mm
08:00 AM 43.6°F6.4°C 38.2°F3.4°C 81% Calm Calm 9.0 mph14.5 kmh 30.07 in1018.3 mb 0.00 in0.0 mm 0.00 in0.0 mm 0.00 in0.0 mm
08:10 AM 44.3°F6.8°C 38.5°F3.6°C 80% Calm Calm 14.0 mph22.5 kmh 30.07 in1018.3 mb 0.00 in0.0 mm 0.00 in0.0 mm 0.00 in0.0 mm
08:20 AM 45.2°F7.3°C 38.8°F3.8°C 78% 4.0 mph NNE6.4 kmh NNE 10.0 mph16.1 kmh 30.08 in1018.6 mb 0.00 in0.0 mm 0.00 in0.0 mm 0.00 in0.0 mm
08:30 AM 46.0°F7.8°C 38.9°F3.8°C 76% 4.0 mph NE6.4 kmh NE 9.0 mph14.5 kmh 30.08 in1018.6 mb 0.00 in0.0 mm 0.00 in0.0 mm 0.00 in0.0 mm
08:40 AM 46.9°F8.3°C 39.4°F4.1°C 75% 4.0 mph NE6.4 kmh NE 13.0 mph20.9 kmh 30.08 in1018.6 mb 0.00 in0.0 mm 0.00 in0.0 mm 0.00 in0.0 mm
08:50 AM 47.7°F8.7°C 39.5°F4.2°C 73% 6.0 mph NE9.7 kmh NE 10.0 mph16.1 kmh 30.07 in1018.3 mb 0.00 in0.0 mm 0.00 in0.0 mm 0.00 in0.0 mm
09:00 AM 48.5°F9.2°C 39.9°F4.4°C 72% 5.0 mph E8.0 kmh E 16.0 mph25.7 kmh 30.07 in1018.3 mb 0.00 in0.0 mm 0.00 in0.0 mm 0.00 in0.0 mm
09:10 AM 49.3°F9.6°C 39.9°F4.4°C 70% 3.0 mph NE4.8 kmh NE 13.0 mph20.9 kmh 30.07 in1018.3 mb 0.00 in0.0 mm 0.00 in0.0 mm 0.00 in0.0 mm
09:20 AM 49.9°F9.9°C 40.2°F4.6°C 69% 4.0 mph ENE6.4 kmh ENE 13.0 mph20.9 kmh 30.07 in1018.3 mb 0.00 in0.0 mm 0.00 in0.0 mm 0.00 in0.0 mm
09:30 AM 50.8°F10.4°C 40.3°F4.6°C 67% 9.0 mph ENE14.5 kmh ENE 14.0 mph22.5 kmh 30.06 in1017.9 mb 0.00 in0.0 mm 0.00 in0.0 mm 0.00 in0.0 mm
09:40 AM 51.5°F10.8°C 40.9°F4.9°C 67% 4.0 mph NE6.4 kmh NE 12.0 mph19.3 kmh 30.07 in1018.3 mb 0.00 in0.0 mm 0.00 in0.0 mm 0.00 in0.0 mm
09:50 AM 51.8°F11.0°C 40.8°F4.9°C 66% 11.0 mph NE17.7 kmh NE 13.0 mph20.9 kmh 30.06 in1017.9 mb 0.00 in0.0 mm 0.00 in0.0 mm 0.00 in0.0 mm
10:00 AM 52.4°F11.3°C 41.0°F5.0°C 65% 10.0 mph NE16.1 kmh NE 16.0 mph25.7 kmh 30.05 in1017.6 mb 0.00 in0.0 mm 0.00 in0.0 mm 0.00 in0.0 mm
10:10 AM 53.6°F12.0°C 42.5°F5.8°C 66% 9.0 mph NE14.5 kmh NE 16.0 mph25.7 kmh 30.06 in1017.9 mb 0.00 in0.0 mm 0.00 in0.0 mm 0.00 in0.0 mm
10:20 AM 55.3°F12.9°C 43.8°F6.6°C 65% 1.0 mph ENE1.6 kmh ENE 10.0 mph16.1 kmh 30.08 in1018.6 mb 0.00 in0.0 mm 0.00 in0.0 mm 0.00 in0.0 mm
10:30 AM 56.1°F13.4°C 42.9°F6.1°C 61% 10.0 mph NE16.1 kmh NE 16.0 mph25.7 kmh 30.08 in1018.6 mb 0.00 in0.0 mm 0.00 in0.0 mm 0.00 in0.0 mm
10:40 AM 56.6°F13.7°C 42.5°F5.8°C 59% 3.0 mph E4.8 kmh E 11.0 mph17.7 kmh 30.09 in1019.0 mb 0.00 in0.0 mm 0.00 in0.0 mm 0.00 in0.0 mm
10:50 AM 57.1°F13.9°C 43.4°F6.3°C 60% 3.0 mph NE4.8 kmh NE 12.0 mph19.3 kmh 30.09 in1019.0 mb 0.00 in0.0 mm 0.00 in0.0 mm 0.00 in0.0 mm
11:00 AM 57.8°F14.3°C 44.0°F6.7°C 60% 6.0 mph ENE9.7 kmh ENE 9.0 mph14.5 kmh 30.09 in1019.0 mb 0.00 in0.0 mm 0.00 in0.0 mm 0.00 in0.0 mm
11:10 AM 58.4°F14.7°C 44.1°F6.7°C 59% 7.0 mph E11.3 kmh E 16.0 mph25.7 kmh 30.09 in1019.0 mb 0.00 in0.0 mm 0.00 in0.0 mm 0.00 in0.0 mm
11:20 AM 58.6°F14.8°C 44.8°F7.1°C 60% 6.0 mph NE9.7 kmh NE 14.0 mph22.5 kmh 30.08 in1018.6 mb 0.00 in0.0 mm 0.00 in0.0 mm 0.00 in0.0 mm
11:30 AM 58.3°F14.6°C 42.7°F5.9°C 56% 8.0 mph NE12.9 kmh NE 14.0 mph22.5 kmh 30.08 in1018.6 mb 0.00 in0.0 mm 0.00 in0.0 mm 0.00 in0.0 mm
11:40 AM 58.1°F14.5°C 43.0°F6.1°C 57% 12.0 mph NE19.3 kmh NE 15.0 mph24.1 kmh 30.08 in1018.6 mb 0.00 in0.0 mm 0.00 in0.0 mm 0.00 in0.0 mm
11:50 AM 58.3°F14.6°C 43.2°F6.2°C 57% 5.0 mph E8.0 kmh E 10.0 mph16.1 kmh 30.07 in1018.3 mb 0.00 in0.0 mm 0.00 in0.0 mm 0.00 in0.0 mm
12:00 PM 59.0°F15.0°C 42.9°F6.1°C 55% 2.0 mph ENE3.2 kmh ENE 16.0 mph25.7 kmh 30.07 in1018.3 mb 0.00 in0.0 mm 0.00 in0.0 mm 0.00 in0.0 mm
12:10 PM 59.3°F15.2°C 43.6°F6.4°C 56% 10.0 mph NE16.1 kmh NE 19.0 mph30.6 kmh 30.05 in1017.6 mb 0.00 in0.0 mm 0.00 in0.0 mm 0.00 in0.0 mm
12:20 PM 60.9°F16.1°C 46.0°F7.8°C 58% 13.0 mph NE20.9 kmh NE 15.0 mph24.1 kmh 30.04 in1017.3 mb 0.00 in0.0 mm 0.00 in0.0 mm 0.00 in0.0 mm
12:30 PM 60.7°F15.9°C 43.5°F6.4°C 53% 5.0 mph NNE8.0 kmh NNE 14.0 mph22.5 kmh 30.04 in1017.3 mb 0.00 in0.0 mm 0.00 in0.0 mm 0.00 in0.0 mm
12:40 PM 61.3°F16.3°C 44.0°F6.7°C 53% 13.0 mph NE20.9 kmh NE 15.0 mph24.1 kmh 30.03 in1016.9 mb 0.00 in0.0 mm 0.00 in0.0 mm 0.00 in0.0 mm
12:50 PM 61.9°F16.6°C 44.6°F7.0°C 53% 11.0 mph ENE17.7 kmh ENE 12.0 mph19.3 kmh 30.01 in1016.3 mb 0.00 in0.0 mm 0.00 in0.0 mm 0.00 in0.0 mm
01:00 PM 62.2°F16.8°C 42.8°F6.0°C 49% 1.0 mph E1.6 kmh E 12.0 mph19.3 kmh 30.02 in1016.6 mb 0.00 in0.0 mm 0.00 in0.0 mm 0.00 in0.0 mm
01:10 PM 62.0°F16.7°C 43.2°F6.2°C 50% 8.0 mph NE12.9 kmh NE 13.0 mph20.9 kmh 30.04 in1017.3 mb 0.00 in0.0 mm 0.00 in0.0 mm 0.00 in0.0 mm
01:20 PM 62.1°F16.7°C 42.7°F5.9°C 49% 10.0 mph ENE16.1 kmh ENE 14.0 mph22.5 kmh 30.05 in1017.6 mb 0.00 in0.0 mm 0.00 in0.0 mm 0.00 in0.0 mm
01:30 PM 62.2°F16.8°C 43.4°F6.3°C 50% 3.0 mph E4.8 kmh E 8.0 mph12.9 kmh 30.04 in1017.3 mb 0.00 in0.0 mm 0.00 in0.0 mm 0.00 in0.0 mm
01:40 PM 62.0°F16.7°C 42.6°F5.9°C 49% 5.0 mph E8.0 kmh E 12.0 mph19.3 kmh 30.03 in1016.9 mb 0.00 in0.0 mm 0.00 in0.0 mm 0.00 in0.0 mm
01:50 PM 62.2°F16.8°C 42.8°F6.0°C 49% 2.0 mph ENE3.2 kmh ENE 12.0 mph19.3 kmh 30.02 in1016.6 mb 0.00 in0.0 mm 0.00 in0.0 mm 0.00 in0.0 mm
02:00 PM 62.5°F16.9°C 42.6°F5.9°C 48% 6.0 mph ENE9.7 kmh ENE 13.0 mph20.9 kmh 30.03 in1016.9 mb 0.00 in0.0 mm 0.00 in0.0 mm 0.00 in0.0 mm
02:10 PM 62.0°F16.7°C 42.6°F5.9°C 49% Calm Calm 14.0 mph22.5 kmh 30.01 in1016.3 mb 0.00 in0.0 mm 0.00 in0.0 mm 0.00 in0.0 mm
02:20 PM 62.0°F16.7°C 42.1°F5.6°C 48% 9.0 mph NE14.5 kmh NE 13.0 mph20.9 kmh 30.01 in1016.3 mb 0.00 in0.0 mm 0.00 in0.0 mm 0.00 in0.0 mm
02:30 PM 62.8°F17.1°C 44.4°F6.9°C 51% 5.0 mph ENE8.0 kmh ENE 10.0 mph16.1 kmh 30.03 in1016.9 mb 0.00 in0.0 mm 0.00 in0.0 mm 0.00 in0.0 mm
02:40 PM 62.6°F17.0°C 42.7°F5.9°C 48% 4.0 mph NE6.4 kmh NE 10.0 mph16.1 kmh 30.03 in1016.9 mb 0.00 in0.0 mm 0.00 in0.0 mm 0.00 in0.0 mm
02:50 PM 62.7°F17.1°C 41.1°F5.1°C 45% Calm Calm 9.0 mph14.5 kmh 30.02 in1016.6 mb 0.00 in0.0 mm 0.00 in0.0 mm 0.00 in0.0 mm
03:00 PM 62.6°F17.0°C 41.6°F5.3°C 46% Calm Calm 13.0 mph20.9 kmh 30.00 in1015.9 mb 0.00 in0.0 mm 0.00 in0.0 mm 0.00 in0.0 mm
03:10 PM 63.3°F17.4°C 42.8°F6.0°C 47% Calm Calm 16.0 mph25.7 kmh 30.00 in1015.9 mb 0.00 in0.0 mm 0.00 in0.0 mm 0.00 in0.0 mm
03:20 PM 63.2°F17.3°C 41.5°F5.3°C 45% 7.0 mph NE11.3 kmh NE 14.0 mph22.5 kmh 30.00 in1015.9 mb 0.00 in0.0 mm 0.00 in0.0 mm 0.00 in0.0 mm
03:30 PM 63.2°F17.3°C 41.0°F5.0°C 44% 2.0 mph E3.2 kmh E 17.0 mph27.4 kmh 29.99 in1015.6 mb 0.00 in0.0 mm 0.00 in0.0 mm 0.00 in0.0 mm
03:40 PM 63.5°F17.5°C 42.4°F5.8°C 46% 7.0 mph NE11.3 kmh NE 11.0 mph17.7 kmh 29.99 in1015.6 mb 0.00 in0.0 mm 0.00 in0.0 mm 0.00 in0.0 mm
03:50 PM 63.8°F17.7°C 41.5°F5.3°C 44% 5.0 mph ENE8.0 kmh ENE 13.0 mph20.9 kmh 29.99 in1015.6 mb 0.00 in0.0 mm 0.00 in0.0 mm 0.00 in0.0 mm
04:00 PM 64.1°F17.8°C 41.2°F5.1°C 43% 6.0 mph E9.7 kmh E 15.0 mph24.1 kmh 29.99 in1015.6 mb 0.00 in0.0 mm 0.00 in0.0 mm 0.00 in0.0 mm
04:10 PM 64.0°F17.8°C 41.1°F5.1°C 43% 10.0 mph NE16.1 kmh NE 15.0 mph24.1 kmh 29.99 in1015.6 mb 0.00 in0.0 mm 0.00 in0.0 mm 0.00 in0.0 mm
04:20 PM 64.2°F17.9°C 41.3°F5.2°C 43% 14.0 mph ENE22.5 kmh ENE 14.0 mph22.5 kmh 29.99 in1015.6 mb 0.00 in0.0 mm 0.00 in0.0 mm 0.00 in0.0 mm
04:30 PM 64.7°F18.2°C 42.9°F6.1°C 45% 5.0 mph NE8.0 kmh NE 12.0 mph19.3 kmh 29.99 in1015.6 mb 0.00 in0.0 mm 0.00 in0.0 mm 0.00 in0.0 mm
04:40 PM 65.0°F18.3°C 42.0°F5.6°C 43% Calm Calm 11.0 mph17.7 kmh 29.98 in1015.2 mb 0.00 in0.0 mm 0.00 in0.0 mm 0.00 in0.0 mm
04:50 PM 65.2°F18.4°C 42.8°F6.0°C 44% Calm Calm 10.0 mph16.1 kmh 29.98 in1015.2 mb 0.00 in0.0 mm 0.00 in0.0 mm 0.00 in0.0 mm
05:00 PM 65.2°F18.4°C 42.8°F6.0°C 44% 3.0 mph NE4.8 kmh NE 7.0 mph11.3 kmh 29.98 in1015.2 mb 0.00 in0.0 mm 0.00 in0.0 mm 0.00 in0.0 mm
05:10 PM 65.0°F18.3°C 42.6°F5.9°C 44% 3.0 mph NE4.8 kmh NE 6.0 mph9.7 kmh 29.98 in1015.2 mb 0.00 in0.0 mm 0.00 in0.0 mm 0.00 in0.0 mm
05:20 PM 64.8°F18.2°C 41.2°F5.1°C 42% Calm Calm 14.0 mph22.5 kmh 29.97 in1014.9 mb 0.00 in0.0 mm 0.00 in0.0 mm 0.00 in0.0 mm
05:30 PM 64.7°F18.2°C 42.3°F5.7°C 44% 4.0 mph ENE6.4 kmh ENE 9.0 mph14.5 kmh 29.97 in1014.9 mb 0.00 in0.0 mm 0.00 in0.0 mm 0.00 in0.0 mm
05:40 PM 64.7°F18.2°C 41.1°F5.1°C 42% Calm Calm 9.0 mph14.5 kmh 29.98 in1015.2 mb 0.00 in0.0 mm 0.00 in0.0 mm 0.00 in0.0 mm
05:50 PM 64.7°F18.2°C 39.9°F4.4°C 40% 1.0 mph ENE1.6 kmh ENE 16.0 mph25.7 kmh 29.98 in1015.2 mb 0.00 in0.0 mm 0.00 in0.0 mm 0.00 in0.0 mm
06:00 PM 64.6°F18.1°C 40.4°F4.7°C 41% 11.0 mph ENE17.7 kmh ENE 11.0 mph17.7 kmh 29.97 in1014.9 mb 0.00 in0.0 mm 0.00 in0.0 mm 0.00 in0.0 mm
06:11 PM 64.8°F18.2°C 41.2°F5.1°C 42% 3.0 mph ENE4.8 kmh ENE 12.0 mph19.3 kmh 29.98 in1015.2 mb 0.00 in0.0 mm 0.00 in0.0 mm 0.00 in0.0 mm
06:20 PM 64.8°F18.2°C 40.6°F4.8°C 41% 1.0 mph NE1.6 kmh NE 10.0 mph16.1 kmh 29.98 in1015.2 mb 0.00 in0.0 mm 0.00 in0.0 mm 0.00 in0.0 mm
06:30 PM 64.8°F18.2°C 40.6°F4.8°C 41% 1.0 mph NE1.6 kmh NE 9.0 mph14.5 kmh 29.98 in1015.2 mb 0.00 in0.0 mm 0.00 in0.0 mm 0.00 in0.0 mm
06:40 PM 64.8°F18.2°C 41.2°F5.1°C 42% Calm Calm 9.0 mph14.5 kmh 29.98 in1015.2 mb 0.00 in0.0 mm 0.00 in0.0 mm 0.00 in0.0 mm
06:50 PM 64.6°F18.1°C 41.6°F5.3°C 43% Calm Calm 6.0 mph9.7 kmh 29.98 in1015.2 mb 0.00 in0.0 mm 0.00 in0.0 mm 0.00 in0.0 mm
07:00 PM 64.4°F18.0°C 43.2°F6.2°C 46% 1.0 mph NE1.6 kmh NE 4.0 mph6.4 kmh 29.98 in1015.2 mb 0.00 in0.0 mm 0.00 in0.0 mm 0.00 in0.0 mm
07:10 PM 64.1°F17.8°C 42.4°F5.8°C 45% 3.0 mph NE4.8 kmh NE 7.0 mph11.3 kmh 29.98 in1015.2 mb 0.00 in0.0 mm 0.00 in0.0 mm 0.00 in0.0 mm
07:20 PM 63.7°F17.6°C 41.4°F5.2°C 44% 2.0 mph NE3.2 kmh NE 5.0 mph8.0 kmh 29.97 in1014.9 mb 0.00 in0.0 mm 0.00 in0.0 mm 0.00 in0.0 mm
07:30 PM 63.4°F17.4°C 41.7°F5.4°C 45% Calm Calm 1.0 mph1.6 kmh 29.97 in1014.9 mb 0.00 in0.0 mm 0.00 in0.0 mm 0.00 in0.0 mm
07:40 PM 63.2°F17.3°C 42.1°F5.6°C 46% Calm Calm 2.0 mph3.2 kmh 29.98 in1015.2 mb 0.00 in0.0 mm 0.00 in0.0 mm 0.00 in0.0 mm
07:50 PM 62.7°F17.1°C 41.6°F5.3°C 46% Calm Calm -- 29.98 in1015.2 mb 0.00 in0.0 mm 0.00 in0.0 mm 0.00 in0.0 mm
08:00 PM 61.7°F16.5°C 42.4°F5.8°C 49% Calm Calm -- 29.99 in1015.6 mb 0.00 in0.0 mm 0.00 in0.0 mm 0.00 in0.0 mm
08:10 PM 60.5°F15.8°C 42.3°F5.7°C 51% Calm Calm 1.0 mph1.6 kmh 29.98 in1015.2 mb 0.00 in0.0 mm 0.00 in0.0 mm 0.00 in0.0 mm
08:20 PM 59.6°F15.3°C 43.0°F6.1°C 54% Calm Calm 2.0 mph3.2 kmh 29.98 in1015.2 mb 0.00 in0.0 mm 0.00 in0.0 mm 0.00 in0.0 mm
08:30 PM 58.8°F14.9°C 42.7°F5.9°C 55% Calm Calm -- 29.98 in1015.2 mb 0.00 in0.0 mm 0.00 in0.0 mm 0.00 in0.0 mm
08:40 PM 58.0°F14.4°C 42.9°F6.1°C 57% Calm Calm 1.0 mph1.6 kmh 29.99 in1015.6 mb 0.00 in0.0 mm 0.00 in0.0 mm 0.00 in0.0 mm
08:50 PM 57.1°F13.9°C 42.0°F5.6°C 57% Calm Calm -- 29.99 in1015.6 mb 0.00 in0.0 mm 0.00 in0.0 mm 0.00 in0.0 mm
09:00 PM 56.6°F13.7°C 42.0°F5.6°C 58% Calm Calm 1.0 mph1.6 kmh 29.99 in1015.6 mb 0.00 in0.0 mm 0.00 in0.0 mm 0.00 in0.0 mm
09:10 PM 56.0°F13.3°C 42.3°F5.7°C 60% Calm Calm 3.0 mph4.8 kmh 29.99 in1015.6 mb 0.00 in0.0 mm 0.00 in0.0 mm 0.00 in0.0 mm
09:20 PM 55.8°F13.2°C 41.7°F5.4°C 59% Calm Calm 3.0 mph4.8 kmh 29.99 in1015.6 mb 0.00 in0.0 mm 0.00 in0.0 mm 0.00 in0.0 mm
09:30 PM 55.8°F13.2°C 41.3°F5.2°C 58% Calm Calm 2.0 mph3.2 kmh 29.99 in1015.6 mb 0.00 in0.0 mm 0.00 in0.0 mm 0.00 in0.0 mm
09:40 PM 55.9°F13.3°C 40.9°F4.9°C 57% Calm Calm 1.0 mph1.6 kmh 29.99 in1015.6 mb 0.00 in0.0 mm 0.00 in0.0 mm 0.00 in0.0 mm
09:50 PM 55.8°F13.2°C 40.8°F4.9°C 57% 3.0 mph NE4.8 kmh NE 6.0 mph9.7 kmh 29.99 in1015.6 mb 0.00 in0.0 mm 0.00 in0.0 mm 0.00 in0.0 mm
10:00 PM 56.5°F13.6°C 40.5°F4.7°C 55% 1.0 mph NE1.6 kmh NE 6.0 mph9.7 kmh 29.99 in1015.6 mb 0.00 in0.0 mm 0.00 in0.0 mm 0.00 in0.0 mm
10:10 PM 57.2°F14.0°C 40.7°F4.8°C 54% Calm Calm 4.0 mph6.4 kmh 30.00 in1015.9 mb 0.00 in0.0 mm 0.00 in0.0 mm 0.00 in0.0 mm
10:20 PM 57.3°F14.1°C 40.8°F4.9°C 54% 1.0 mph NE1.6 kmh NE 2.0 mph3.2 kmh 30.00 in1015.9 mb 0.00 in0.0 mm 0.00 in0.0 mm 0.00 in0.0 mm
10:30 PM 56.8°F13.8°C 40.4°F4.7°C 54% Calm Calm 5.0 mph8.0 kmh 30.00 in1015.9 mb 0.00 in0.0 mm 0.00 in0.0 mm 0.00 in0.0 mm
10:40 PM 56.4°F13.6°C 40.5°F4.7°C 55% Calm Calm 4.0 mph6.4 kmh 30.00 in1015.9 mb 0.00 in0.0 mm 0.00 in0.0 mm 0.00 in0.0 mm
10:50 PM 55.9°F13.3°C 40.5°F4.7°C 56% Calm Calm 3.0 mph4.8 kmh 30.00 in1015.9 mb 0.00 in0.0 mm 0.00 in0.0 mm 0.00 in0.0 mm
11:00 PM 55.5°F13.1°C 40.5°F4.7°C 57% Calm Calm -- 30.00 in1015.9 mb 0.00 in0.0 mm 0.00 in0.0 mm 0.00 in0.0 mm
11:10 PM 54.9°F12.7°C 40.4°F4.7°C 58% Calm Calm 1.0 mph1.6 kmh 30.00 in1015.9 mb 0.00 in0.0 mm 0.00 in0.0 mm 0.00 in0.0 mm
11:20 PM 54.5°F12.5°C 40.9°F4.9°C 60% Calm Calm 2.0 mph3.2 kmh 30.00 in1015.9 mb 0.00 in0.0 mm 0.00 in0.0 mm 0.00 in0.0 mm
11:30 PM 54.0°F12.2°C 40.9°F4.9°C 61% 1.0 mph ENE1.6 kmh ENE 3.0 mph4.8 kmh 30.00 in1015.9 mb 0.00 in0.0 mm 0.00 in0.0 mm 0.00 in0.0 mm
11:40 PM 53.4°F11.9°C 40.3°F4.6°C 61% Calm Calm 3.0 mph4.8 kmh 29.99 in1015.6 mb 0.00 in0.0 mm 0.00 in0.0 mm 0.00 in0.0 mm
11:50 PM 53.0°F11.7°C 40.3°F4.6°C 62% Calm Calm 2.0 mph3.2 kmh 29.99 in1015.6 mb 0.00 in0.0 mm 0.00 in0.0 mm 0.00 in0.0 mm